sensor_id;sensor_type;location;lat;lon;timestamp;pressure;altitude;pressure_sealevel;temperature;humidity
64841;BME280;51307;52.162;7.560;2023-01-27T00:00:07;101913.50;;;3.97;62.75
64841;BME280;51307;52.162;7.560;2023-01-27T00:02:33;101909.44;;;3.92;62.87
64841;BME280;51307;52.162;7.560;2023-01-27T00:04:59;101912.94;;;3.92;62.09
64841;BME280;51307;52.162;7.560;2023-01-27T00:07:24;101912.19;;;3.90;61.99
64841;BME280;51307;52.162;7.560;2023-01-27T00:09:50;101914.03;;;3.88;62.37
64841;BME280;51307;52.162;7.560;2023-01-27T00:12:21;101910.56;;;3.87;62.51
64841;BME280;51307;52.162;7.560;2023-01-27T00:15:07;101922.19;;;3.85;62.81
64841;BME280;51307;52.162;7.560;2023-01-27T00:17:33;101911.69;;;3.83;62.49
64841;BME280;51307;52.162;7.560;2023-01-27T00:19:59;101917.22;;;3.79;62.88
64841;BME280;51307;52.162;7.560;2023-01-27T00:22:25;101915.16;;;3.84;62.77
64841;BME280;51307;52.162;7.560;2023-01-27T00:25:09;101911.69;;;3.83;62.71
64841;BME280;51307;52.162;7.560;2023-01-27T00:27:35;101913.63;;;3.80;62.97
64841;BME280;51307;52.162;7.560;2023-01-27T00:30:00;101912.72;;;3.81;62.89
64841;BME280;51307;52.162;7.560;2023-01-27T00:32:29;101912.53;;;3.84;62.87
64841;BME280;51307;52.162;7.560;2023-01-27T00:35:14;101912.94;;;3.76;62.79
64841;BME280;51307;52.162;7.560;2023-01-27T00:37:43;101917.41;;;3.76;62.85
64841;BME280;51307;52.162;7.560;2023-01-27T00:40:15;101915.53;;;3.78;62.97
64841;BME280;51307;52.162;7.560;2023-01-27T00:42:41;101915.88;;;3.71;63.25
64841;BME280;51307;52.162;7.560;2023-01-27T00:45:07;101916.09;;;3.83;63.05
64841;BME280;51307;52.162;7.560;2023-01-27T00:47:51;101913.22;;;3.87;62.97
64841;BME280;51307;52.162;7.560;2023-01-27T00:50:18;101908.34;;;3.80;63.11
64841;BME280;51307;52.162;7.560;2023-01-27T00:52:45;101914.13;;;3.86;62.87
64841;BME280;51307;52.162;7.560;2023-01-27T00:55:11;101915.09;;;3.69;63.29
64841;BME280;51307;52.162;7.560;2023-01-27T00:57:37;101921.31;;;3.84;63.14
64841;BME280;51307;52.162;7.560;2023-01-27T01:00:07;101917.47;;;3.90;63.09
64841;BME280;51307;52.162;7.560;2023-01-27T01:02:34;101926.03;;;3.79;63.38
64841;BME280;51307;52.162;7.560;2023-01-27T01:05:00;101921.66;;;3.94;62.89
64841;BME280;51307;52.162;7.560;2023-01-27T01:07:26;101923.50;;;3.92;63.04
64841;BME280;51307;52.162;7.560;2023-01-27T01:09:51;101919.66;;;3.67;63.73
64841;BME280;51307;52.162;7.560;2023-01-27T01:12:17;101918.50;;;3.87;63.38
64841;BME280;51307;52.162;7.560;2023-01-27T01:14:42;101920.28;;;3.87;63.57
64841;BME280;51307;52.162;7.560;2023-01-27T01:17:08;101919.44;;;3.86;63.51
64841;BME280;51307;52.162;7.560;2023-01-27T01:19:33;101918.13;;;3.94;63.16
64841;BME280;51307;52.162;7.560;2023-01-27T01:21:59;101920.47;;;3.84;63.55
64841;BME280;51307;52.162;7.560;2023-01-27T01:24:24;101920.28;;;3.87;63.83
64841;BME280;51307;52.162;7.560;2023-01-27T01:26:50;101924.28;;;3.94;63.38
64841;BME280;51307;52.162;7.560;2023-01-27T01:29:15;101936.41;;;3.98;63.37
64841;BME280;51307;52.162;7.560;2023-01-27T01:31:41;101939.06;;;3.98;63.39
64841;BME280;51307;52.162;7.560;2023-01-27T01:34:07;101941.97;;;3.94;63.36
64841;BME280;51307;52.162;7.560;2023-01-27T01:36:33;101939.00;;;3.84;63.70
64841;BME280;51307;52.162;7.560;2023-01-27T01:38:58;101937.69;;;3.91;63.77
64841;BME280;51307;52.162;7.560;2023-01-27T01:41:24;101933.84;;;3.97;63.36
64841;BME280;51307;52.162;7.560;2023-01-27T01:43:50;101930.81;;;3.88;63.85
64841;BME280;51307;52.162;7.560;2023-01-27T01:46:17;101929.53;;;3.64;64.65
64841;BME280;51307;52.162;7.560;2023-01-27T01:48:57;101925.00;;;3.82;64.21
64841;BME280;51307;52.162;7.560;2023-01-27T01:51:41;101933.00;;;3.80;64.28
64841;BME280;51307;52.162;7.560;2023-01-27T01:56:59;101930.88;;;3.87;63.90
64841;BME280;51307;52.162;7.560;2023-01-27T01:59:35;101929.75;;;3.91;63.83
64841;BME280;51307;52.162;7.560;2023-01-27T02:02:06;101932.78;;;3.85;63.89
64841;BME280;51307;52.162;7.560;2023-01-27T02:04:56;101927.72;;;3.80;64.21
64841;BME280;51307;52.162;7.560;2023-01-27T02:07:27;101935.31;;;3.86;64.19
64841;BME280;51307;52.162;7.560;2023-01-27T02:09:55;101932.06;;;3.97;63.93
64841;BME280;51307;52.162;7.560;2023-01-27T02:12:22;101935.81;;;3.93;64.39
64841;BME280;51307;52.162;7.560;2023-01-27T02:14:48;101936.59;;;3.95;64.12
64841;BME280;51307;52.162;7.560;2023-01-27T02:17:15;101932.59;;;3.88;64.52
64841;BME280;51307;52.162;7.560;2023-01-27T02:25:05;101939.06;;;3.98;64.44
64841;BME280;51307;52.162;7.560;2023-01-27T02:27:33;101938.19;;;3.98;64.51
64841;BME280;51307;52.162;7.560;2023-01-27T02:29:59;101938.47;;;3.93;64.70
64841;BME280;51307;52.162;7.560;2023-01-27T02:32:25;101935.94;;;3.76;65.09
64841;BME280;51307;52.162;7.560;2023-01-27T02:34:54;101930.81;;;3.88;64.80
64841;BME280;51307;52.162;7.560;2023-01-27T02:37:22;101932.94;;;3.82;64.84
64841;BME280;51307;52.162;7.560;2023-01-27T02:39:50;101939.06;;;3.98;64.61
64841;BME280;51307;52.162;7.560;2023-01-27T02:42:18;101938.03;;;4.01;64.42
64841;BME280;51307;52.162;7.560;2023-01-27T02:44:44;101932.41;;;3.91;64.82
64841;BME280;51307;52.162;7.560;2023-01-27T02:47:09;101934.78;;;3.96;64.71
64841;BME280;51307;52.162;7.560;2023-01-27T02:49:35;101937.00;;;4.03;64.26
64841;BME280;51307;52.162;7.560;2023-01-27T02:52:00;101930.94;;;4.01;64.38
64841;BME280;51307;52.162;7.560;2023-01-27T02:54:28;101929.06;;;4.03;64.09
64841;BME280;51307;52.162;7.560;2023-01-27T02:56:54;101929.75;;;3.91;64.51
64841;BME280;51307;52.162;7.560;2023-01-27T02:59:20;101925.91;;;3.97;64.33
64841;BME280;51307;52.162;7.560;2023-01-27T03:01:45;101930.25;;;3.98;64.34
64841;BME280;51307;52.162;7.560;2023-01-27T03:04:11;101934.41;;;4.02;64.34
64841;BME280;51307;52.162;7.560;2023-01-27T03:06:37;101931.75;;;3.87;64.61
64841;BME280;51307;52.162;7.560;2023-01-27T03:09:03;101931.97;;;3.99;64.44
64841;BME280;51307;52.162;7.560;2023-01-27T03:11:30;101931.41;;;4.08;64.40
64841;BME280;51307;52.162;7.560;2023-01-27T03:14:14;101936.50;;;3.97;64.61
64841;BME280;51307;52.162;7.560;2023-01-27T03:16:40;101934.88;;;3.94;64.78
64841;BME280;51307;52.162;7.560;2023-01-27T03:19:24;101944.09;;;3.87;65.11
64841;BME280;51307;52.162;7.560;2023-01-27T03:21:52;101942.47;;;4.00;64.60
64841;BME280;51307;52.162;7.560;2023-01-27T03:24:18;101936.66;;;3.94;64.79
64841;BME280;51307;52.162;7.560;2023-01-27T03:26:43;101941.81;;;3.97;64.43
64841;BME280;51307;52.162;7.560;2023-01-27T03:29:09;101941.13;;;3.93;64.27
64841;BME280;51307;52.162;7.560;2023-01-27T03:31:55;101939.63;;;3.73;64.76
64841;BME280;51307;52.162;7.560;2023-01-27T03:34:20;101945.69;;;3.75;64.44
64841;BME280;51307;52.162;7.560;2023-01-27T03:36:46;101939.63;;;3.73;64.50
64841;BME280;51307;52.162;7.560;2023-01-27T03:39:30;101946.13;;;3.67;64.45
64841;BME280;51307;52.162;7.560;2023-01-27T03:42:14;101938.25;;;3.82;64.16
64841;BME280;51307;52.162;7.560;2023-01-27T03:44:59;101953.69;;;3.74;64.14
64841;BME280;51307;52.162;7.560;2023-01-27T03:47:43;101951.91;;;3.74;64.08
64841;BME280;51307;52.162;7.560;2023-01-27T03:50:09;101948.50;;;3.72;64.57
64841;BME280;51307;52.162;7.560;2023-01-27T03:52:44;101956.69;;;3.67;64.56
64841;BME280;51307;52.162;7.560;2023-01-27T03:55:31;101954.66;;;3.72;64.46
64841;BME280;51307;52.162;7.560;2023-01-27T03:57:56;101964.66;;;3.67;64.59
64841;BME280;51307;52.162;7.560;2023-01-27T04:00:30;101968.81;;;3.71;64.51
64841;BME280;51307;52.162;7.560;2023-01-27T04:02:56;101966.78;;;3.77;64.39
64841;BME280;51307;52.162;7.560;2023-01-27T04:05:40;101963.75;;;3.83;64.29
64841;BME280;51307;52.162;7.560;2023-01-27T04:08:24;101959.84;;;3.74;64.53
64841;BME280;51307;52.162;7.560;2023-01-27T04:10:50;101954.13;;;3.82;64.35
64841;BME280;51307;52.162;7.560;2023-01-27T04:13:35;101950.28;;;3.71;64.73
64841;BME280;51307;52.162;7.560;2023-01-27T04:16:01;101957.72;;;3.81;64.46
64841;BME280;51307;52.162;7.560;2023-01-27T04:18:26;101962.69;;;3.71;64.89
64841;BME280;51307;52.162;7.560;2023-01-27T04:20:52;101963.00;;;3.81;64.37
64841;BME280;51307;52.162;7.560;2023-01-27T04:23:17;101959.03;;;3.58;64.89
64841;BME280;51307;52.162;7.560;2023-01-27T04:25:43;101957.31;;;3.72;64.69
64841;BME280;51307;52.162;7.560;2023-01-27T04:28:08;101961.47;;;3.77;64.53
64841;BME280;51307;52.162;7.560;2023-01-27T04:30:33;101956.00;;;3.48;65.20
64841;BME280;51307;52.162;7.560;2023-01-27T04:32:59;101951.63;;;3.79;64.54
64841;BME280;51307;52.162;7.560;2023-01-27T04:35:26;101956.19;;;3.77;64.46
64841;BME280;51307;52.162;7.560;2023-01-27T04:37:52;101960.97;;;3.70;64.87
64841;BME280;51307;52.162;7.560;2023-01-27T04:40:17;101951.81;;;3.76;64.86
64841;BME280;51307;52.162;7.560;2023-01-27T04:42:43;101957.81;;;3.63;65.29
64841;BME280;51307;52.162;7.560;2023-01-27T04:45:09;101955.91;;;3.65;64.93
64841;BME280;51307;52.162;7.560;2023-01-27T04:47:34;101965.41;;;3.69;65.02
64841;BME280;51307;52.162;7.560;2023-01-27T04:50:00;101968.41;;;3.47;65.61
64841;BME280;51307;52.162;7.560;2023-01-27T04:52:25;101964.66;;;3.51;65.56
64841;BME280;51307;52.162;7.560;2023-01-27T04:54:51;101967.81;;;3.58;65.35
64841;BME280;51307;52.162;7.560;2023-01-27T04:57:16;101970.72;;;3.53;65.37
64841;BME280;51307;52.162;7.560;2023-01-27T04:59:42;101976.16;;;3.66;64.97
64841;BME280;51307;52.162;7.560;2023-01-27T05:02:07;101971.81;;;3.49;65.45
64841;BME280;51307;52.162;7.560;2023-01-27T05:04:33;101978.06;;;3.64;65.12
64841;BME280;51307;52.162;7.560;2023-01-27T05:06:58;101974.63;;;3.62;65.01
64841;BME280;51307;52.162;7.560;2023-01-27T05:09:24;101982.81;;;3.74;64.95
64841;BME280;51307;52.162;7.560;2023-01-27T05:11:49;101972.31;;;3.56;65.12
64841;BME280;51307;52.162;7.560;2023-01-27T05:14:15;101982.84;;;3.58;65.45
64841;BME280;51307;52.162;7.560;2023-01-27T05:16:40;101986.25;;;3.76;64.88
64841;BME280;51307;52.162;7.560;2023-01-27T05:19:07;101992.31;;;3.62;65.35
64841;BME280;51307;52.162;7.560;2023-01-27T05:21:33;101993.25;;;3.77;65.07
64841;BME280;51307;52.162;7.560;2023-01-27T05:23:58;101991.03;;;3.69;65.18
64841;BME280;51307;52.162;7.560;2023-01-27T05:26:27;101988.09;;;3.74;65.29
64841;BME280;51307;52.162;7.560;2023-01-27T05:28:54;101989.72;;;3.60;65.63
64841;BME280;51307;52.162;7.560;2023-01-27T05:31:23;101994.00;;;3.63;65.59
64841;BME280;51307;52.162;7.560;2023-01-27T05:33:51;101991.03;;;3.53;65.97
64841;BME280;51307;52.162;7.560;2023-01-27T05:36:19;101993.25;;;3.61;66.20
64841;BME280;51307;52.162;7.560;2023-01-27T05:38:45;101983.91;;;3.69;65.78
64841;BME280;51307;52.162;7.560;2023-01-27T05:41:12;101995.97;;;3.75;65.52
64841;BME280;51307;52.162;7.560;2023-01-27T05:43:40;101998.38;;;3.64;65.89
64841;BME280;51307;52.162;7.560;2023-01-27T05:46:14;102001.09;;;3.62;65.90
64841;BME280;51307;52.162;7.560;2023-01-27T05:48:43;102004.78;;;3.76;65.58
64841;BME280;51307;52.162;7.560;2023-01-27T05:51:10;102008.44;;;3.73;65.64
64841;BME280;51307;52.162;7.560;2023-01-27T05:53:36;102007.22;;;3.79;65.48
64841;BME280;51307;52.162;7.560;2023-01-27T05:56:02;102009.66;;;3.67;65.75
64841;BME280;51307;52.162;7.560;2023-01-27T05:58:29;102005.97;;;3.70;65.76
64841;BME280;51307;52.162;7.560;2023-01-27T06:00:55;102009.28;;;3.74;65.72
64841;BME280;51307;52.162;7.560;2023-01-27T06:03:21;102014.56;;;3.74;65.72
64841;BME280;51307;52.162;7.560;2023-01-27T06:05:52;102026.13;;;3.72;65.87
64841;BME280;51307;52.162;7.560;2023-01-27T06:08:19;102018.78;;;3.78;65.80
64841;BME280;51307;52.162;7.560;2023-01-27T06:10:44;102019.53;;;3.80;65.53
64841;BME280;51307;52.162;7.560;2023-01-27T06:13:22;102035.31;;;3.65;66.13
64841;BME280;51307;52.162;7.560;2023-01-27T06:15:48;102034.56;;;3.63;66.31
64841;BME280;51307;52.162;7.560;2023-01-27T06:18:15;102039.38;;;3.72;66.18
64841;BME280;51307;52.162;7.560;2023-01-27T06:20:42;102035.25;;;3.83;65.98
64841;BME280;51307;52.162;7.560;2023-01-27T06:23:09;102034.31;;;3.84;65.93
64841;BME280;51307;52.162;7.560;2023-01-27T06:25:41;102033.97;;;3.90;65.77
64841;BME280;51307;52.162;7.560;2023-01-27T06:28:07;102029.81;;;3.86;65.81
64841;BME280;51307;52.162;7.560;2023-01-27T06:30:34;102034.91;;;3.89;65.76
64841;BME280;51307;52.162;7.560;2023-01-27T06:33:01;102027.38;;;3.81;65.81
64841;BME280;51307;52.162;7.560;2023-01-27T06:35:27;102030.47;;;3.89;65.65
64841;BME280;51307;52.162;7.560;2023-01-27T06:37:53;102042.84;;;3.73;66.12
64841;BME280;51307;52.162;7.560;2023-01-27T06:40:19;102032.94;;;3.61;66.16
64841;BME280;51307;52.162;7.560;2023-01-27T06:42:44;102044.28;;;3.63;66.13
64841;BME280;51307;52.162;7.560;2023-01-27T06:45:13;102038.06;;;3.80;65.92
64841;BME280;51307;52.162;7.560;2023-01-27T06:47:39;102036.22;;;3.82;65.81
64841;BME280;51307;52.162;7.560;2023-01-27T06:50:07;102044.38;;;3.77;65.91
64841;BME280;51307;52.162;7.560;2023-01-27T06:52:34;102039.78;;;3.81;65.88
64841;BME280;51307;52.162;7.560;2023-01-27T06:54:59;102046.94;;;3.79;66.18
64841;BME280;51307;52.162;7.560;2023-01-27T06:57:25;102043.03;;;3.86;65.89
64841;BME280;51307;52.162;7.560;2023-01-27T06:59:51;102047.72;;;3.97;65.78
64841;BME280;51307;52.162;7.560;2023-01-27T07:02:16;102060.28;;;3.77;66.07
64841;BME280;51307;52.162;7.560;2023-01-27T07:04:42;102063.84;;;3.92;65.69
64841;BME280;51307;52.162;7.560;2023-01-27T07:07:07;102073.19;;;3.99;65.64
64841;BME280;51307;52.162;7.560;2023-01-27T07:09:33;102070.78;;;3.95;65.53
64841;BME280;51307;52.162;7.560;2023-01-27T07:11:58;102068.91;;;3.97;65.41
64841;BME280;51307;52.162;7.560;2023-01-27T07:14:24;102079.31;;;3.84;65.72
64841;BME280;51307;52.162;7.560;2023-01-27T07:16:49;102067.03;;;3.99;65.33
64841;BME280;51307;52.162;7.560;2023-01-27T07:19:15;102072.13;;;4.02;65.18
64841;BME280;51307;52.162;7.560;2023-01-27T07:21:41;102067.72;;;4.02;64.95
64841;BME280;51307;52.162;7.560;2023-01-27T07:24:07;102066.84;;;4.02;64.85
64841;BME280;51307;52.162;7.560;2023-01-27T07:26:33;102076.41;;;4.04;64.99
64841;BME280;51307;52.162;7.560;2023-01-27T07:28:58;102087.97;;;4.03;64.81
64841;BME280;51307;52.162;7.560;2023-01-27T07:31:24;102089.09;;;3.99;65.17
64841;BME280;51307;52.162;7.560;2023-01-27T07:33:51;102090.53;;;4.05;64.69
64841;BME280;51307;52.162;7.560;2023-01-27T07:36:17;102092.16;;;3.92;64.85
64841;BME280;51307;52.162;7.560;2023-01-27T07:38:43;102104.78;;;4.02;65.00
64841;BME280;51307;52.162;7.560;2023-01-27T07:41:08;102105.31;;;4.09;64.82
64841;BME280;51307;52.162;7.560;2023-01-27T07:43:34;102107.34;;;4.04;64.76
64841;BME280;51307;52.162;7.560;2023-01-27T07:45:59;102102.66;;;3.93;65.11
64841;BME280;51307;52.162;7.560;2023-01-27T07:48:26;102108.03;;;4.08;64.75
64841;BME280;51307;52.162;7.560;2023-01-27T07:50:51;102110.09;;;4.02;64.91
64841;BME280;51307;52.162;7.560;2023-01-27T07:53:17;102116.31;;;4.01;65.27
64841;BME280;51307;52.162;7.560;2023-01-27T07:55:42;102114.78;;;3.97;65.10
64841;BME280;51307;52.162;7.560;2023-01-27T07:58:08;102120.50;;;4.05;65.22
64841;BME280;51307;52.162;7.560;2023-01-27T08:00:34;102130.25;;;4.05;64.90
64841;BME280;51307;52.162;7.560;2023-01-27T08:03:01;102129.75;;;3.98;65.08
64841;BME280;51307;52.162;7.560;2023-01-27T08:05:31;102131.16;;;3.88;65.42
64841;BME280;51307;52.162;7.560;2023-01-27T08:07:57;102135.47;;;4.07;64.95
64841;BME280;51307;52.162;7.560;2023-01-27T08:10:23;102137.09;;;4.09;64.83
64841;BME280;51307;52.162;7.560;2023-01-27T08:12:49;102136.56;;;4.02;64.88
64841;BME280;51307;52.162;7.560;2023-01-27T08:15:14;102131.00;;;4.07;65.04
64841;BME280;51307;52.162;7.560;2023-01-27T08:17:40;102136.28;;;3.91;65.15
64841;BME280;51307;52.162;7.560;2023-01-27T08:20:07;102135.03;;;3.98;65.11
64841;BME280;51307;52.162;7.560;2023-01-27T08:22:32;102137.84;;;4.11;64.70
64841;BME280;51307;52.162;7.560;2023-01-27T08:24:58;102133.06;;;4.02;64.94
64841;BME280;51307;52.162;7.560;2023-01-27T08:27:23;102133.41;;;4.12;64.45
64841;BME280;51307;52.162;7.560;2023-01-27T08:29:49;102140.66;;;4.08;64.88
64841;BME280;51307;52.162;7.560;2023-01-27T08:32:14;102142.03;;;4.15;64.58
64841;BME280;51307;52.162;7.560;2023-01-27T08:34:40;102140.59;;;4.10;64.35
64841;BME280;51307;52.162;7.560;2023-01-27T08:37:06;102148.03;;;4.19;64.37
64841;BME280;51307;52.162;7.560;2023-01-27T08:39:32;102143.72;;;4.00;64.70
64841;BME280;51307;52.162;7.560;2023-01-27T08:41:58;102140.84;;;3.89;64.45
64841;BME280;51307;52.162;7.560;2023-01-27T08:44:23;102143.13;;;4.11;64.11
64841;BME280;51307;52.162;7.560;2023-01-27T08:46:49;102152.09;;;4.09;63.98
64841;BME280;51307;52.162;7.560;2023-01-27T08:49:15;102149.31;;;4.12;63.94
64841;BME280;51307;52.162;7.560;2023-01-27T08:51:41;102141.09;;;4.16;63.64
64841;BME280;51307;52.162;7.560;2023-01-27T08:54:08;102155.81;;;4.06;63.66
64841;BME280;51307;52.162;7.560;2023-01-27T08:56:34;102148.78;;;4.05;63.67
64841;BME280;51307;52.162;7.560;2023-01-27T08:58:59;102158.88;;;3.98;63.72
64841;BME280;51307;52.162;7.560;2023-01-27T09:01:26;102155.13;;;4.18;63.39
64841;BME280;51307;52.162;7.560;2023-01-27T09:03:51;102168.97;;;4.24;63.08
64841;BME280;51307;52.162;7.560;2023-01-27T09:06:18;102160.56;;;4.15;63.17
64841;BME280;51307;52.162;7.560;2023-01-27T09:08:46;102167.50;;;4.18;63.17
64841;BME280;51307;52.162;7.560;2023-01-27T09:11:36;102168.19;;;4.21;62.89
64841;BME280;51307;52.162;7.560;2023-01-27T09:14:03;102167.06;;;4.10;63.35
64841;BME280;51307;52.162;7.560;2023-01-27T09:16:29;102170.66;;;4.25;62.99
64841;BME280;51307;52.162;7.560;2023-01-27T09:18:55;102168.19;;;4.21;63.19
64841;BME280;51307;52.162;7.560;2023-01-27T09:21:22;102176.97;;;4.22;62.95
64841;BME280;51307;52.162;7.560;2023-01-27T09:23:48;102178.63;;;4.25;62.67
64841;BME280;51307;52.162;7.560;2023-01-27T09:26:13;102182.22;;;4.24;62.55
64841;BME280;51307;52.162;7.560;2023-01-27T09:28:40;102180.31;;;4.26;62.48
64841;BME280;51307;52.162;7.560;2023-01-27T09:31:05;102178.19;;;4.16;62.69
64841;BME280;51307;52.162;7.560;2023-01-27T09:33:34;102185.03;;;4.36;62.34
64841;BME280;51307;52.162;7.560;2023-01-27T09:36:10;102185.97;;;4.35;62.62
64841;BME280;51307;52.162;7.560;2023-01-27T09:38:44;102193.84;;;4.37;62.36
64841;BME280;51307;52.162;7.560;2023-01-27T09:47:10;102190.41;;;4.35;62.31
64841;BME280;51307;52.162;7.560;2023-01-27T09:49:59;102187.84;;;4.33;62.37
64841;BME280;51307;52.162;7.560;2023-01-27T09:55:41;102194.19;;;4.31;62.00
64841;BME280;51307;52.162;7.560;2023-01-27T09:58:20;102200.09;;;4.36;62.09
64841;BME280;51307;52.162;7.560;2023-01-27T10:12:03;102208.06;;;4.52;61.45
64841;BME280;51307;52.162;7.560;2023-01-27T10:14:46;102209.91;;;4.34;61.35
64841;BME280;51307;52.162;7.560;2023-01-27T10:17:30;102199.34;;;4.50;61.07
64841;BME280;51307;52.162;7.560;2023-01-27T10:28:23;102203.91;;;4.46;61.28
64841;BME280;51307;52.162;7.560;2023-01-27T10:31:10;102199.16;;;4.53;61.21
64841;BME280;51307;52.162;7.560;2023-01-27T10:34:00;102207.81;;;4.57;60.73
64841;BME280;51307;52.162;7.560;2023-01-27T10:36:38;102200.59;;;4.27;61.17
64841;BME280;51307;52.162;7.560;2023-01-27T10:39:32;102193.72;;;4.56;61.39
64841;BME280;51307;52.162;7.560;2023-01-27T10:50:31;102198.22;;;4.70;61.20
64841;BME280;51307;52.162;7.560;2023-01-27T10:55:48;102197.38;;;4.69;60.41
64841;BME280;51307;52.162;7.560;2023-01-27T11:00:54;102200.34;;;4.63;59.60
64841;BME280;51307;52.162;7.560;2023-01-27T11:03:31;102199.06;;;4.70;59.96
64841;BME280;51307;52.162;7.560;2023-01-27T11:06:05;102194.88;;;4.66;59.27
64841;BME280;51307;52.162;7.560;2023-01-27T11:08:36;102189.47;;;4.68;58.88
64841;BME280;51307;52.162;7.560;2023-01-27T11:11:07;102189.91;;;4.76;58.54
64841;BME280;51307;52.162;7.560;2023-01-27T11:14:07;102192.47;;;4.78;58.45
64841;BME280;51307;52.162;7.560;2023-01-27T11:16:36;102185.38;;;4.78;58.14
64841;BME280;51307;52.162;7.560;2023-01-27T11:19:15;102179.31;;;4.76;58.33
64841;BME280;51307;52.162;7.560;2023-01-27T11:21:44;102191.66;;;4.92;57.88
64841;BME280;51307;52.162;7.560;2023-01-27T11:24:20;102192.28;;;4.81;58.40
64841;BME280;51307;52.162;7.560;2023-01-27T11:27:05;102190.47;;;4.97;57.92
64841;BME280;51307;52.162;7.560;2023-01-27T11:29:45;102186.38;;;4.92;58.43
64841;BME280;51307;52.162;7.560;2023-01-27T11:35:12;102176.53;;;4.94;58.32
64841;BME280;51307;52.162;7.560;2023-01-27T11:37:43;102186.19;;;4.95;58.09
64841;BME280;51307;52.162;7.560;2023-01-27T11:40:32;102182.19;;;4.87;58.35
64841;BME280;51307;52.162;7.560;2023-01-27T11:42:59;102185.63;;;4.89;57.82
64841;BME280;51307;52.162;7.560;2023-01-27T11:45:31;102192.28;;;4.81;58.24
64841;BME280;51307;52.162;7.560;2023-01-27T11:48:01;102187.78;;;4.83;58.07
64841;BME280;51307;52.162;7.560;2023-01-27T11:50:34;102190.16;;;4.71;58.28
64841;BME280;51307;52.162;7.560;2023-01-27T11:55:57;102181.69;;;4.81;58.56
64841;BME280;51307;52.162;7.560;2023-01-27T11:58:50;102186.41;;;4.76;58.27
64841;BME280;51307;52.162;7.560;2023-01-27T12:01:35;102184.94;;;4.86;58.47
64841;BME280;51307;52.162;7.560;2023-01-27T12:04:15;102180.66;;;4.83;58.13
64841;BME280;51307;52.162;7.560;2023-01-27T12:06:53;102178.34;;;4.77;57.76
64841;BME280;51307;52.162;7.560;2023-01-27T12:09:35;102173.31;;;4.72;58.08
64841;BME280;51307;52.162;7.560;2023-01-27T12:17:21;102170.91;;;4.68;57.85
64841;BME280;51307;52.162;7.560;2023-01-27T12:19:51;102168.97;;;4.71;57.82
64841;BME280;51307;52.162;7.560;2023-01-27T12:24:58;102169.28;;;4.81;57.36
64841;BME280;51307;52.162;7.560;2023-01-27T12:27:30;102166.06;;;4.76;57.37
64841;BME280;51307;52.162;7.560;2023-01-27T12:30:03;102157.31;;;4.74;57.78
64841;BME280;51307;52.162;7.560;2023-01-27T12:32:41;102159.78;;;4.77;57.56
64841;BME280;51307;52.162;7.560;2023-01-27T12:35:20;102159.47;;;4.67;58.36
64841;BME280;51307;52.162;7.560;2023-01-27T12:38:03;102152.44;;;4.66;58.36
64841;BME280;51307;52.162;7.560;2023-01-27T12:40:32;102148.88;;;4.67;58.03
64841;BME280;51307;52.162;7.560;2023-01-27T12:48:13;102145.97;;;4.72;58.26
64841;BME280;51307;52.162;7.560;2023-01-27T12:53:20;102142.34;;;4.73;58.52
64841;BME280;51307;52.162;7.560;2023-01-27T12:55:55;102151.00;;;4.77;58.30
64841;BME280;51307;52.162;7.560;2023-01-27T13:03:49;102151.66;;;4.80;58.58
64841;BME280;51307;52.162;7.560;2023-01-27T13:06:29;102152.34;;;4.68;58.27
64841;BME280;51307;52.162;7.560;2023-01-27T13:08:58;102156.47;;;4.74;57.84
64841;BME280;51307;52.162;7.560;2023-01-27T13:11:39;102155.44;;;4.76;58.06
64841;BME280;51307;52.162;7.560;2023-01-27T13:14:15;102159.63;;;4.80;57.95
64841;BME280;51307;52.162;7.560;2023-01-27T13:16:52;102160.16;;;4.71;57.20
64841;BME280;51307;52.162;7.560;2023-01-27T13:19:19;102163.66;;;4.71;57.04
64841;BME280;51307;52.162;7.560;2023-01-27T13:21:49;102150.31;;;4.73;56.18
64841;BME280;51307;52.162;7.560;2023-01-27T13:24:26;102153.41;;;4.65;56.18
64841;BME280;51307;52.162;7.560;2023-01-27T13:26:56;102154.06;;;4.69;56.50
64841;BME280;51307;52.162;7.560;2023-01-27T13:29:27;102156.56;;;4.72;56.17
64841;BME280;51307;52.162;7.560;2023-01-27T13:31:57;102167.94;;;4.58;56.43
64841;BME280;51307;52.162;7.560;2023-01-27T13:34:46;102158.44;;;4.70;56.35
64841;BME280;51307;52.162;7.560;2023-01-27T13:42:28;102165.97;;;4.78;57.02
64841;BME280;51307;52.162;7.560;2023-01-27T13:45:03;102163.56;;;4.73;56.96
64841;BME280;51307;52.162;7.560;2023-01-27T13:52:51;102168.97;;;4.71;57.67
64841;BME280;51307;52.162;7.560;2023-01-27T14:03:38;102183.84;;;4.74;58.89
64841;BME280;51307;52.162;7.560;2023-01-27T14:06:31;102179.44;;;4.89;57.93
64841;BME280;51307;52.162;7.560;2023-01-27T14:09:17;102179.81;;;4.83;58.03
64841;BME280;51307;52.162;7.560;2023-01-27T14:11:51;102185.13;;;4.83;58.02
64841;BME280;51307;52.162;7.560;2023-01-27T14:14:23;102189.91;;;4.76;58.13
64841;BME280;51307;52.162;7.560;2023-01-27T14:17:17;102180.44;;;4.72;58.00
64841;BME280;51307;52.162;7.560;2023-01-27T14:25:36;102183.84;;;4.74;57.94
64841;BME280;51307;52.162;7.560;2023-01-27T14:37:13;102192.81;;;4.71;56.75
64841;BME280;51307;52.162;7.560;2023-01-27T14:40:03;102199.41;;;4.64;57.19
64841;BME280;51307;52.162;7.560;2023-01-27T14:42:42;102198.81;;;4.59;56.93
64841;BME280;51307;52.162;7.560;2023-01-27T14:45:22;102193.69;;;4.72;56.78
64841;BME280;51307;52.162;7.560;2023-01-27T14:50:28;102192.31;;;4.65;56.74
64841;BME280;51307;52.162;7.560;2023-01-27T14:53:34;102194.47;;;4.58;56.65
64841;BME280;51307;52.162;7.560;2023-01-27T14:56:16;102210.72;;;4.52;56.87
64841;BME280;51307;52.162;7.560;2023-01-27T15:01:48;102204.91;;;4.61;56.61
64841;BME280;51307;52.162;7.560;2023-01-27T15:06:58;102193.06;;;4.83;55.77
64841;BME280;51307;52.162;7.560;2023-01-27T15:15:36;102216.25;;;4.63;55.96
64841;BME280;51307;52.162;7.560;2023-01-27T15:26:54;102214.97;;;6.34;51.51
64841;BME280;51307;52.162;7.560;2023-01-27T15:29:25;102221.56;;;6.83;50.32